sensor_id;sensor_type;location;lat;lon;timestamp;pressure;altitude;pressure_sealevel;temperature
71081;BMP180;58740;50.672;18.690;2023-04-24T00:00:05;98133.60;;;13.90
71081;BMP180;58740;50.672;18.690;2023-04-24T00:02:53;98128.80;;;13.92
71081;BMP180;58740;50.672;18.690;2023-04-24T00:05:25;98127.40;;;13.90
71081;BMP180;58740;50.672;18.690;2023-04-24T00:07:53;98127.20;;;13.90
71081;BMP180;58740;50.672;18.690;2023-04-24T00:10:21;98124.20;;;13.90
71081;BMP180;58740;50.672;18.690;2023-04-24T00:12:49;98121.60;;;13.92
71081;BMP180;58740;50.672;18.690;2023-04-24T00:15:16;98123.20;;;13.94
71081;BMP180;58740;50.672;18.690;2023-04-24T00:17:44;98122.00;;;13.90
71081;BMP180;58740;50.672;18.690;2023-04-24T00:20:12;98114.00;;;13.90
71081;BMP180;58740;50.672;18.690;2023-04-24T00:22:42;98116.00;;;13.90
71081;BMP180;58740;50.672;18.690;2023-04-24T00:25:09;98112.00;;;13.90
71081;BMP180;58740;50.672;18.690;2023-04-24T00:27:37;98109.00;;;13.90
71081;BMP180;58740;50.672;18.690;2023-04-24T00:30:07;98108.80;;;13.90
71081;BMP180;58740;50.672;18.690;2023-04-24T00:32:35;98106.40;;;13.90
71081;BMP180;58740;50.672;18.690;2023-04-24T00:35:03;98101.20;;;13.90
71081;BMP180;58740;50.672;18.690;2023-04-24T00:37:31;98098.80;;;13.90
71081;BMP180;58740;50.672;18.690;2023-04-24T00:39:59;98097.60;;;13.90
71081;BMP180;58740;50.672;18.690;2023-04-24T00:42:27;98089.00;;;13.90
71081;BMP180;58740;50.672;18.690;2023-04-24T00:44:56;98089.40;;;13.90
71081;BMP180;58740;50.672;18.690;2023-04-24T00:47:25;98086.20;;;13.90
71081;BMP180;58740;50.672;18.690;2023-04-24T00:49:53;98090.80;;;13.90
71081;BMP180;58740;50.672;18.690;2023-04-24T00:52:20;98085.60;;;13.90
71081;BMP180;58740;50.672;18.690;2023-04-24T00:54:51;98081.20;;;13.90
71081;BMP180;58740;50.672;18.690;2023-04-24T00:57:19;98078.40;;;13.90
71081;BMP180;58740;50.672;18.690;2023-04-24T00:59:47;98075.20;;;13.90
71081;BMP180;58740;50.672;18.690;2023-04-24T01:02:15;98076.00;;;13.90
71081;BMP180;58740;50.672;18.690;2023-04-24T01:04:43;98069.80;;;13.90
71081;BMP180;58740;50.672;18.690;2023-04-24T01:07:11;98069.60;;;13.90
71081;BMP180;58740;50.672;18.690;2023-04-24T01:09:40;98068.00;;;13.98
71081;BMP180;58740;50.672;18.690;2023-04-24T01:12:12;98065.40;;;13.98
71081;BMP180;58740;50.672;18.690;2023-04-24T01:14:39;98065.40;;;14.00
71081;BMP180;58740;50.672;18.690;2023-04-24T01:17:07;98063.40;;;14.00
71081;BMP180;58740;50.672;18.690;2023-04-24T01:19:38;98066.40;;;14.00
71081;BMP180;58740;50.672;18.690;2023-04-24T01:22:12;98063.60;;;14.00
71081;BMP180;58740;50.672;18.690;2023-04-24T01:24:42;98062.60;;;14.00
71081;BMP180;58740;50.672;18.690;2023-04-24T01:27:10;98057.80;;;14.00
71081;BMP180;58740;50.672;18.690;2023-04-24T01:29:38;98056.40;;;14.00
71081;BMP180;58740;50.672;18.690;2023-04-24T01:32:06;98052.20;;;14.00
71081;BMP180;58740;50.672;18.690;2023-04-24T01:34:34;98047.20;;;13.96
71081;BMP180;58740;50.672;18.690;2023-04-24T01:37:02;98051.20;;;13.94
71081;BMP180;58740;50.672;18.690;2023-04-24T01:39:30;98048.00;;;13.98
71081;BMP180;58740;50.672;18.690;2023-04-24T01:41:57;98051.40;;;14.00
71081;BMP180;58740;50.672;18.690;2023-04-24T01:44:26;98044.40;;;13.92
71081;BMP180;58740;50.672;18.690;2023-04-24T01:46:55;98048.20;;;13.90
71081;BMP180;58740;50.672;18.690;2023-04-24T01:49:23;98049.00;;;13.90
71081;BMP180;58740;50.672;18.690;2023-04-24T01:51:51;98046.40;;;13.88
71081;BMP180;58740;50.672;18.690;2023-04-24T01:54:18;98042.20;;;13.80
71081;BMP180;58740;50.672;18.690;2023-04-24T01:56:47;98042.60;;;13.80
71081;BMP180;58740;50.672;18.690;2023-04-24T01:59:17;98038.20;;;13.80
71081;BMP180;58740;50.672;18.690;2023-04-24T02:01:45;98038.40;;;13.80
71081;BMP180;58740;50.672;18.690;2023-04-24T02:04:13;98034.60;;;13.80
71081;BMP180;58740;50.672;18.690;2023-04-24T02:06:42;98033.80;;;13.74
71081;BMP180;58740;50.672;18.690;2023-04-24T02:09:10;98028.80;;;13.70
71081;BMP180;58740;50.672;18.690;2023-04-24T02:11:38;98032.60;;;13.70
71081;BMP180;58740;50.672;18.690;2023-04-24T02:14:06;98027.80;;;13.60
71081;BMP180;58740;50.672;18.690;2023-04-24T02:16:33;98036.20;;;13.60
71081;BMP180;58740;50.672;18.690;2023-04-24T02:19:04;98034.00;;;13.50
71081;BMP180;58740;50.672;18.690;2023-04-24T02:21:31;98032.20;;;13.40
71081;BMP180;58740;50.672;18.690;2023-04-24T02:24:00;98036.00;;;13.40
71081;BMP180;58740;50.672;18.690;2023-04-24T02:26:28;98034.40;;;13.40
71081;BMP180;58740;50.672;18.690;2023-04-24T02:28:56;98030.00;;;13.30
71081;BMP180;58740;50.672;18.690;2023-04-24T02:31:24;98025.60;;;13.30
71081;BMP180;58740;50.672;18.690;2023-04-24T02:33:52;98027.00;;;13.30
71081;BMP180;58740;50.672;18.690;2023-04-24T02:36:19;98023.60;;;13.30
71081;BMP180;58740;50.672;18.690;2023-04-24T02:38:47;98022.00;;;13.30
71081;BMP180;58740;50.672;18.690;2023-04-24T02:41:15;98021.60;;;13.20
71081;BMP180;58740;50.672;18.690;2023-04-24T02:43:43;98020.60;;;13.20
71081;BMP180;58740;50.672;18.690;2023-04-24T02:46:10;98022.40;;;13.20
71081;BMP180;58740;50.672;18.690;2023-04-24T02:48:38;98022.40;;;13.20
71081;BMP180;58740;50.672;18.690;2023-04-24T02:51:06;98018.80;;;13.16
71081;BMP180;58740;50.672;18.690;2023-04-24T02:53:34;98017.60;;;13.12
71081;BMP180;58740;50.672;18.690;2023-04-24T02:56:01;98015.20;;;13.14
71081;BMP180;58740;50.672;18.690;2023-04-24T02:58:29;98015.40;;;13.10
71081;BMP180;58740;50.672;18.690;2023-04-24T03:00:57;98015.20;;;13.12
71081;BMP180;58740;50.672;18.690;2023-04-24T03:03:25;98007.80;;;13.12
71081;BMP180;58740;50.672;18.690;2023-04-24T03:05:53;98013.00;;;13.10
71081;BMP180;58740;50.672;18.690;2023-04-24T03:08:21;98012.60;;;13.16
71081;BMP180;58740;50.672;18.690;2023-04-24T03:10:49;98012.40;;;13.20
71081;BMP180;58740;50.672;18.690;2023-04-24T03:13:16;98011.60;;;13.20
71081;BMP180;58740;50.672;18.690;2023-04-24T03:15:44;98010.00;;;13.20
71081;BMP180;58740;50.672;18.690;2023-04-24T03:18:13;98004.00;;;13.20
71081;BMP180;58740;50.672;18.690;2023-04-24T03:20:42;98007.80;;;13.20
71081;BMP180;58740;50.672;18.690;2023-04-24T03:23:09;98008.60;;;13.20
71081;BMP180;58740;50.672;18.690;2023-04-24T03:25:37;98002.80;;;13.20
71081;BMP180;58740;50.672;18.690;2023-04-24T03:28:05;97996.60;;;13.20
71081;BMP180;58740;50.672;18.690;2023-04-24T03:30:32;97998.00;;;13.20
71081;BMP180;58740;50.672;18.690;2023-04-24T03:33:00;98001.00;;;13.20
71081;BMP180;58740;50.672;18.690;2023-04-24T03:35:28;97998.80;;;13.20
71081;BMP180;58740;50.672;18.690;2023-04-24T03:37:55;97999.80;;;13.28
71081;BMP180;58740;50.672;18.690;2023-04-24T03:40:23;97999.20;;;13.30
71081;BMP180;58740;50.672;18.690;2023-04-24T03:42:51;97999.20;;;13.30
71081;BMP180;58740;50.672;18.690;2023-04-24T03:45:19;97999.60;;;13.30
71081;BMP180;58740;50.672;18.690;2023-04-24T03:47:47;97997.60;;;13.30
71081;BMP180;58740;50.672;18.690;2023-04-24T03:50:14;97993.60;;;13.40
71081;BMP180;58740;50.672;18.690;2023-04-24T03:52:42;97998.20;;;13.40
71081;BMP180;58740;50.672;18.690;2023-04-24T03:55:10;98000.60;;;13.40
71081;BMP180;58740;50.672;18.690;2023-04-24T03:57:40;97999.20;;;13.40
71081;BMP180;58740;50.672;18.690;2023-04-24T04:00:09;97996.40;;;13.40
71081;BMP180;58740;50.672;18.690;2023-04-24T04:02:37;97992.00;;;13.40
71081;BMP180;58740;50.672;18.690;2023-04-24T04:05:06;97992.20;;;13.30
71081;BMP180;58740;50.672;18.690;2023-04-24T04:07:34;97994.00;;;13.34
71081;BMP180;58740;50.672;18.690;2023-04-24T04:10:01;97995.40;;;13.30
71081;BMP180;58740;50.672;18.690;2023-04-24T04:12:29;97992.40;;;13.30
71081;BMP180;58740;50.672;18.690;2023-04-24T04:14:57;97985.20;;;13.30
71081;BMP180;58740;50.672;18.690;2023-04-24T04:17:25;97987.80;;;13.30
71081;BMP180;58740;50.672;18.690;2023-04-24T04:19:52;97986.80;;;13.30
71081;BMP180;58740;50.672;18.690;2023-04-24T04:22:20;97984.20;;;13.30
71081;BMP180;58740;50.672;18.690;2023-04-24T04:24:48;97988.40;;;13.28
71081;BMP180;58740;50.672;18.690;2023-04-24T04:27:16;97989.80;;;13.30
71081;BMP180;58740;50.672;18.690;2023-04-24T04:29:44;97987.40;;;13.30
71081;BMP180;58740;50.672;18.690;2023-04-24T04:32:12;97985.00;;;13.30
71081;BMP180;58740;50.672;18.690;2023-04-24T04:34:40;97982.60;;;13.40
71081;BMP180;58740;50.672;18.690;2023-04-24T04:37:08;97981.60;;;13.40
71081;BMP180;58740;50.672;18.690;2023-04-24T04:39:36;97983.40;;;13.40
71081;BMP180;58740;50.672;18.690;2023-04-24T04:42:03;97985.20;;;13.50
71081;BMP180;58740;50.672;18.690;2023-04-24T04:44:31;97983.40;;;13.50
71081;BMP180;58740;50.672;18.690;2023-04-24T04:46:59;97985.40;;;13.54
71081;BMP180;58740;50.672;18.690;2023-04-24T04:49:27;97978.20;;;13.60
71081;BMP180;58740;50.672;18.690;2023-04-24T04:51:56;97981.20;;;13.62
71081;BMP180;58740;50.672;18.690;2023-04-24T04:54:24;97974.80;;;13.70
71081;BMP180;58740;50.672;18.690;2023-04-24T04:56:52;97974.00;;;13.70
71081;BMP180;58740;50.672;18.690;2023-04-24T04:59:20;97975.20;;;13.70
71081;BMP180;58740;50.672;18.690;2023-04-24T05:01:47;97971.60;;;13.78
71081;BMP180;58740;50.672;18.690;2023-04-24T05:04:15;97970.60;;;13.80
71081;BMP180;58740;50.672;18.690;2023-04-24T05:06:43;97969.40;;;13.80
71081;BMP180;58740;50.672;18.690;2023-04-24T05:09:11;97967.80;;;13.90
71081;BMP180;58740;50.672;18.690;2023-04-24T05:11:39;97966.80;;;13.90
71081;BMP180;58740;50.672;18.690;2023-04-24T05:14:07;97970.40;;;14.00
71081;BMP180;58740;50.672;18.690;2023-04-24T05:16:34;97967.40;;;14.10
71081;BMP180;58740;50.672;18.690;2023-04-24T05:19:03;97965.00;;;14.16
71081;BMP180;58740;50.672;18.690;2023-04-24T05:21:30;97967.40;;;14.24
71081;BMP180;58740;50.672;18.690;2023-04-24T05:23:58;97965.60;;;14.32
71081;BMP180;58740;50.672;18.690;2023-04-24T05:26:27;97965.60;;;14.50
71081;BMP180;58740;50.672;18.690;2023-04-24T05:28:54;97967.60;;;14.60
71081;BMP180;58740;50.672;18.690;2023-04-24T05:31:22;97955.20;;;14.70
71081;BMP180;58740;50.672;18.690;2023-04-24T05:33:50;97957.20;;;14.80
71081;BMP180;58740;50.672;18.690;2023-04-24T05:36:17;97957.20;;;14.90
71081;BMP180;58740;50.672;18.690;2023-04-24T05:38:45;97953.60;;;15.00
71081;BMP180;58740;50.672;18.690;2023-04-24T05:41:13;97952.80;;;15.12
71081;BMP180;58740;50.672;18.690;2023-04-24T05:43:40;97952.40;;;15.30
71081;BMP180;58740;50.672;18.690;2023-04-24T05:46:08;97955.20;;;15.40
71081;BMP180;58740;50.672;18.690;2023-04-24T05:48:36;97950.60;;;15.50
71081;BMP180;58740;50.672;18.690;2023-04-24T05:51:04;97952.40;;;15.66
71081;BMP180;58740;50.672;18.690;2023-04-24T05:53:32;97950.00;;;15.80
71081;BMP180;58740;50.672;18.690;2023-04-24T05:55:59;97945.00;;;15.90
71081;BMP180;58740;50.672;18.690;2023-04-24T05:58:28;97947.20;;;16.00
71081;BMP180;58740;50.672;18.690;2023-04-24T06:00:55;97943.20;;;16.10
71081;BMP180;58740;50.672;18.690;2023-04-24T06:03:24;97941.00;;;16.20
71081;BMP180;58740;50.672;18.690;2023-04-24T06:05:53;97937.40;;;16.30
71081;BMP180;58740;50.672;18.690;2023-04-24T06:08:21;97934.80;;;16.40
71081;BMP180;58740;50.672;18.690;2023-04-24T06:10:48;97935.80;;;16.50
71081;BMP180;58740;50.672;18.690;2023-04-24T06:13:17;97932.00;;;16.60
71081;BMP180;58740;50.672;18.690;2023-04-24T06:15:44;97926.40;;;16.70
71081;BMP180;58740;50.672;18.690;2023-04-24T06:18:12;97924.00;;;16.80
71081;BMP180;58740;50.672;18.690;2023-04-24T06:20:40;97924.80;;;16.80
71081;BMP180;58740;50.672;18.690;2023-04-24T06:23:08;97923.80;;;16.88
71081;BMP180;58740;50.672;18.690;2023-04-24T06:25:35;97921.40;;;16.80
71081;BMP180;58740;50.672;18.690;2023-04-24T06:28:03;97916.20;;;16.80
71081;BMP180;58740;50.672;18.690;2023-04-24T06:30:31;97920.00;;;16.88
71081;BMP180;58740;50.672;18.690;2023-04-24T06:32:59;97915.80;;;16.90
71081;BMP180;58740;50.672;18.690;2023-04-24T06:35:39;97916.60;;;17.08
71081;BMP180;58740;50.672;18.690;2023-04-24T06:38:07;97912.60;;;17.12
71081;BMP180;58740;50.672;18.690;2023-04-24T06:40:35;97916.20;;;17.20
71081;BMP180;58740;50.672;18.690;2023-04-24T06:43:03;97914.20;;;17.16
71081;BMP180;58740;50.672;18.690;2023-04-24T06:45:31;97916.80;;;17.10
71081;BMP180;58740;50.672;18.690;2023-04-24T06:47:59;97919.80;;;17.10
71081;BMP180;58740;50.672;18.690;2023-04-24T06:50:27;97916.40;;;17.10
71081;BMP180;58740;50.672;18.690;2023-04-24T06:52:54;97919.00;;;17.10
71081;BMP180;58740;50.672;18.690;2023-04-24T06:55:22;97918.60;;;17.10
71081;BMP180;58740;50.672;18.690;2023-04-24T06:57:50;97920.80;;;17.10
71081;BMP180;58740;50.672;18.690;2023-04-24T07:00:18;97920.00;;;17.10
71081;BMP180;58740;50.672;18.690;2023-04-24T07:02:46;97922.80;;;17.16
71081;BMP180;58740;50.672;18.690;2023-04-24T07:05:14;97914.80;;;17.10
71081;BMP180;58740;50.672;18.690;2023-04-24T07:07:43;97915.20;;;17.20
71081;BMP180;58740;50.672;18.690;2023-04-24T07:10:12;97917.00;;;17.26
71081;BMP180;58740;50.672;18.690;2023-04-24T07:12:40;97918.40;;;17.38
71081;BMP180;58740;50.672;18.690;2023-04-24T07:15:09;97918.40;;;17.50
71081;BMP180;58740;50.672;18.690;2023-04-24T07:17:36;97918.40;;;17.70
71081;BMP180;58740;50.672;18.690;2023-04-24T07:20:06;97923.00;;;17.80
71081;BMP180;58740;50.672;18.690;2023-04-24T07:22:39;97921.20;;;17.70
71081;BMP180;58740;50.672;18.690;2023-04-24T07:25:08;97909.80;;;17.80
71081;BMP180;58740;50.672;18.690;2023-04-24T07:27:36;97909.60;;;17.90
71081;BMP180;58740;50.672;18.690;2023-04-24T07:30:05;97914.80;;;17.90
71081;BMP180;58740;50.672;18.690;2023-04-24T07:32:34;97907.40;;;17.92
71081;BMP180;58740;50.672;18.690;2023-04-24T07:35:02;97905.80;;;17.90
71081;BMP180;58740;50.672;18.690;2023-04-24T07:37:30;97904.00;;;17.90
71081;BMP180;58740;50.672;18.690;2023-04-24T07:39:58;97905.40;;;17.94
71081;BMP180;58740;50.672;18.690;2023-04-24T07:42:26;97908.80;;;18.10
71081;BMP180;58740;50.672;18.690;2023-04-24T07:44:53;97901.00;;;18.22
71081;BMP180;58740;50.672;18.690;2023-04-24T07:47:21;97903.00;;;18.40
71081;BMP180;58740;50.672;18.690;2023-04-24T07:49:49;97907.20;;;18.54
71081;BMP180;58740;50.672;18.690;2023-04-24T07:52:17;97905.00;;;18.70
71081;BMP180;58740;50.672;18.690;2023-04-24T07:54:44;97901.20;;;18.80
71081;BMP180;58740;50.672;18.690;2023-04-24T07:57:12;97905.40;;;18.90
71081;BMP180;58740;50.672;18.690;2023-04-24T07:59:41;97907.80;;;19.08
71081;BMP180;58740;50.672;18.690;2023-04-24T08:02:10;97903.40;;;19.20
71081;BMP180;58740;50.672;18.690;2023-04-24T08:04:38;97896.20;;;19.30
71081;BMP180;58740;50.672;18.690;2023-04-24T08:07:06;97891.80;;;19.30
71081;BMP180;58740;50.672;18.690;2023-04-24T08:09:34;97892.80;;;19.24
71081;BMP180;58740;50.672;18.690;2023-04-24T08:12:01;97900.00;;;19.24
71081;BMP180;58740;50.672;18.690;2023-04-24T08:14:30;97899.60;;;19.22
71081;BMP180;58740;50.672;18.690;2023-04-24T08:16:57;97894.40;;;19.20
71081;BMP180;58740;50.672;18.690;2023-04-24T08:19:27;97889.20;;;19.10
71081;BMP180;58740;50.672;18.690;2023-04-24T08:21:55;97890.80;;;19.10
71081;BMP180;58740;50.672;18.690;2023-04-24T08:24:23;97896.60;;;19.10
71081;BMP180;58740;50.672;18.690;2023-04-24T08:26:50;97892.20;;;19.00
71081;BMP180;58740;50.672;18.690;2023-04-24T08:29:19;97891.80;;;19.00
71081;BMP180;58740;50.672;18.690;2023-04-24T08:31:47;97892.40;;;19.00
71081;BMP180;58740;50.672;18.690;2023-04-24T08:34:15;97896.40;;;19.10
71081;BMP180;58740;50.672;18.690;2023-04-24T08:36:43;97897.20;;;19.20
71081;BMP180;58740;50.672;18.690;2023-04-24T08:39:14;97893.40;;;19.20
71081;BMP180;58740;50.672;18.690;2023-04-24T08:41:44;97893.60;;;19.22
71081;BMP180;58740;50.672;18.690;2023-04-24T08:44:13;97888.20;;;19.30
71081;BMP180;58740;50.672;18.690;2023-04-24T08:46:43;97887.00;;;19.30
71081;BMP180;58740;50.672;18.690;2023-04-24T08:49:15;97893.60;;;19.30
71081;BMP180;58740;50.672;18.690;2023-04-24T08:51:46;97882.20;;;19.40
71081;BMP180;58740;50.672;18.690;2023-04-24T08:54:15;97886.80;;;19.42
71081;BMP180;58740;50.672;18.690;2023-04-24T08:56:44;97879.40;;;19.50
71081;BMP180;58740;50.672;18.690;2023-04-24T08:59:14;97883.80;;;19.50
71081;BMP180;58740;50.672;18.690;2023-04-24T09:01:44;97874.20;;;19.54
71081;BMP180;58740;50.672;18.690;2023-04-24T09:04:14;97880.60;;;19.60
71081;BMP180;58740;50.672;18.690;2023-04-24T09:06:44;97879.60;;;19.60
71081;BMP180;58740;50.672;18.690;2023-04-24T09:09:13;97875.40;;;19.66
71081;BMP180;58740;50.672;18.690;2023-04-24T09:11:41;97873.20;;;19.70
71081;BMP180;58740;50.672;18.690;2023-04-24T09:14:09;97871.80;;;19.70
71081;BMP180;58740;50.672;18.690;2023-04-24T09:16:38;97876.40;;;19.80
71081;BMP180;58740;50.672;18.690;2023-04-24T09:19:05;97875.80;;;19.80
71081;BMP180;58740;50.672;18.690;2023-04-24T09:21:34;97869.20;;;19.80
71081;BMP180;58740;50.672;18.690;2023-04-24T09:24:15;97865.80;;;19.90
71081;BMP180;58740;50.672;18.690;2023-04-24T09:26:45;97869.40;;;19.90
71081;BMP180;58740;50.672;18.690;2023-04-24T09:29:17;97860.20;;;19.90
71081;BMP180;58740;50.672;18.690;2023-04-24T09:31:46;97862.60;;;19.90
71081;BMP180;58740;50.672;18.690;2023-04-24T09:34:14;97857.80;;;19.90
71081;BMP180;58740;50.672;18.690;2023-04-24T09:36:43;97852.20;;;20.00
71081;BMP180;58740;50.672;18.690;2023-04-24T09:39:14;97850.20;;;20.00
71081;BMP180;58740;50.672;18.690;2023-04-24T09:44:19;97850.40;;;20.00
71081;BMP180;58740;50.672;18.690;2023-04-24T09:49:25;97851.00;;;20.00
71081;BMP180;58740;50.672;18.690;2023-04-24T09:52:08;97842.60;;;20.10
71081;BMP180;58740;50.672;18.690;2023-04-24T09:54:39;97840.20;;;20.10
71081;BMP180;58740;50.672;18.690;2023-04-24T09:57:08;97838.20;;;20.10
71081;BMP180;58740;50.672;18.690;2023-04-24T09:59:42;97840.00;;;20.18
71081;BMP180;58740;50.672;18.690;2023-04-24T10:02:19;97834.80;;;20.20
71081;BMP180;58740;50.672;18.690;2023-04-24T10:04:56;97834.60;;;20.20
71081;BMP180;58740;50.672;18.690;2023-04-24T10:07:27;97830.00;;;20.10
71081;BMP180;58740;50.672;18.690;2023-04-24T10:09:55;97835.60;;;20.00
71081;BMP180;58740;50.672;18.690;2023-04-24T10:12:24;97834.60;;;19.96
71081;BMP180;58740;50.672;18.690;2023-04-24T10:14:53;97827.20;;;19.90
71081;BMP180;58740;50.672;18.690;2023-04-24T10:17:22;97825.80;;;19.80
71081;BMP180;58740;50.672;18.690;2023-04-24T10:19:52;97832.20;;;19.80
71081;BMP180;58740;50.672;18.690;2023-04-24T10:22:21;97832.00;;;19.70
71081;BMP180;58740;50.672;18.690;2023-04-24T10:24:50;97832.00;;;19.70
71081;BMP180;58740;50.672;18.690;2023-04-24T10:27:20;97824.80;;;19.60
71081;BMP180;58740;50.672;18.690;2023-04-24T10:29:51;97823.60;;;19.60
71081;BMP180;58740;50.672;18.690;2023-04-24T10:32:20;97822.20;;;19.60
71081;BMP180;58740;50.672;18.690;2023-04-24T10:34:48;97823.20;;;19.60
71081;BMP180;58740;50.672;18.690;2023-04-24T10:37:16;97820.00;;;19.60
71081;BMP180;58740;50.672;18.690;2023-04-24T10:39:48;97820.80;;;19.60
71081;BMP180;58740;50.672;18.690;2023-04-24T10:42:16;97826.20;;;19.60
71081;BMP180;58740;50.672;18.690;2023-04-24T10:44:47;97817.60;;;19.60
71081;BMP180;58740;50.672;18.690;2023-04-24T10:47:16;97816.60;;;19.60
71081;BMP180;58740;50.672;18.690;2023-04-24T10:49:45;97820.40;;;19.60
71081;BMP180;58740;50.672;18.690;2023-04-24T10:52:14;97819.40;;;19.70
71081;BMP180;58740;50.672;18.690;2023-04-24T10:54:45;97828.40;;;19.74
71081;BMP180;58740;50.672;18.690;2023-04-24T11:00:09;97825.60;;;19.70
71081;BMP180;58740;50.672;18.690;2023-04-24T11:02:40;97823.80;;;19.70
71081;BMP180;58740;50.672;18.690;2023-04-24T11:05:15;97822.80;;;19.70
71081;BMP180;58740;50.672;18.690;2023-04-24T11:08:22;97821.60;;;19.68
71081;BMP180;58740;50.672;18.690;2023-04-24T11:11:11;97816.00;;;19.60
71081;BMP180;58740;50.672;18.690;2023-04-24T11:19:08;97810.80;;;19.50
71081;BMP180;58740;50.672;18.690;2023-04-24T11:22:02;97812.80;;;19.40
71081;BMP180;58740;50.672;18.690;2023-04-24T11:24:38;97812.40;;;19.50
71081;BMP180;58740;50.672;18.690;2023-04-24T11:27:21;97814.40;;;19.50
71081;BMP180;58740;50.672;18.690;2023-04-24T11:30:00;97801.80;;;19.60
71081;BMP180;58740;50.672;18.690;2023-04-24T11:32:33;97801.40;;;19.70
71081;BMP180;58740;50.672;18.690;2023-04-24T11:37:38;97798.00;;;19.80
71081;BMP180;58740;50.672;18.690;2023-04-24T11:40:09;97797.60;;;19.80
71081;BMP180;58740;50.672;18.690;2023-04-24T11:42:42;97797.20;;;19.80
71081;BMP180;58740;50.672;18.690;2023-04-24T11:45:14;97799.60;;;19.80
71081;BMP180;58740;50.672;18.690;2023-04-24T11:47:44;97798.40;;;19.80
71081;BMP180;58740;50.672;18.690;2023-04-24T11:50:15;97799.60;;;19.80
71081;BMP180;58740;50.672;18.690;2023-04-24T11:52:46;97800.20;;;19.80
71081;BMP180;58740;50.672;18.690;2023-04-24T11:57:47;97809.20;;;19.80
71081;BMP180;58740;50.672;18.690;2023-04-24T12:00:23;97819.80;;;19.78
71081;BMP180;58740;50.672;18.690;2023-04-24T12:02:59;97820.40;;;19.70
71081;BMP180;58740;50.672;18.690;2023-04-24T12:05:31;97819.00;;;19.60
71081;BMP180;58740;50.672;18.690;2023-04-24T12:07:59;97814.60;;;19.52
71081;BMP180;58740;50.672;18.690;2023-04-24T12:10:30;97819.20;;;19.50
71081;BMP180;58740;50.672;18.690;2023-04-24T12:12:59;97816.20;;;19.40
71081;BMP180;58740;50.672;18.690;2023-04-24T12:15:28;97818.80;;;19.38
71081;BMP180;58740;50.672;18.690;2023-04-24T12:17:56;97820.20;;;19.30
71081;BMP180;58740;50.672;18.690;2023-04-24T12:20:30;97817.80;;;19.30
71081;BMP180;58740;50.672;18.690;2023-04-24T12:23:01;97819.00;;;19.30
71081;BMP180;58740;50.672;18.690;2023-04-24T12:25:32;97820.80;;;19.30
71081;BMP180;58740;50.672;18.690;2023-04-24T12:30:40;97816.80;;;19.30
71081;BMP180;58740;50.672;18.690;2023-04-24T12:33:08;97815.40;;;19.30
71081;BMP180;58740;50.672;18.690;2023-04-24T12:35:36;97812.60;;;19.38
71081;BMP180;58740;50.672;18.690;2023-04-24T12:38:11;97810.00;;;19.40
71081;BMP180;58740;50.672;18.690;2023-04-24T12:40:42;97821.20;;;19.40
71081;BMP180;58740;50.672;18.690;2023-04-24T12:43:19;97818.20;;;19.50
71081;BMP180;58740;50.672;18.690;2023-04-24T12:45:48;97821.40;;;19.50
71081;BMP180;58740;50.672;18.690;2023-04-24T12:48:15;97817.40;;;19.50
71081;BMP180;58740;50.672;18.690;2023-04-24T12:50:44;97824.60;;;19.54
71081;BMP180;58740;50.672;18.690;2023-04-24T12:53:14;97822.60;;;19.60
71081;BMP180;58740;50.672;18.690;2023-04-24T12:55:44;97818.20;;;19.50
71081;BMP180;58740;50.672;18.690;2023-04-24T12:58:13;97817.00;;;19.50
71081;BMP180;58740;50.672;18.690;2023-04-24T13:00:40;97816.80;;;19.48
71081;BMP180;58740;50.672;18.690;2023-04-24T13:03:11;97813.60;;;19.40
71081;BMP180;58740;50.672;18.690;2023-04-24T13:05:41;97810.40;;;19.40
71081;BMP180;58740;50.672;18.690;2023-04-24T13:08:09;97810.40;;;19.40
71081;BMP180;58740;50.672;18.690;2023-04-24T13:10:37;97807.00;;;19.40
71081;BMP180;58740;50.672;18.690;2023-04-24T13:13:05;97798.40;;;19.48
71081;BMP180;58740;50.672;18.690;2023-04-24T13:15:33;97803.00;;;19.40
71081;BMP180;58740;50.672;18.690;2023-04-24T13:18:01;97798.60;;;19.40
71081;BMP180;58740;50.672;18.690;2023-04-24T13:20:29;97794.00;;;19.30
71081;BMP180;58740;50.672;18.690;2023-04-24T13:22:56;97797.00;;;19.30
71081;BMP180;58740;50.672;18.690;2023-04-24T13:25:24;97790.80;;;19.20
71081;BMP180;58740;50.672;18.690;2023-04-24T13:27:52;97786.40;;;19.20
71081;BMP180;58740;50.672;18.690;2023-04-24T13:30:20;97784.60;;;19.10
71081;BMP180;58740;50.672;18.690;2023-04-24T13:32:47;97784.00;;;19.10
71081;BMP180;58740;50.672;18.690;2023-04-24T13:35:15;97786.80;;;19.10
71081;BMP180;58740;50.672;18.690;2023-04-24T13:37:43;97782.60;;;19.00
71081;BMP180;58740;50.672;18.690;2023-04-24T13:40:11;97784.40;;;19.00
71081;BMP180;58740;50.672;18.690;2023-04-24T13:42:40;97774.60;;;18.90
71081;BMP180;58740;50.672;18.690;2023-04-24T13:45:08;97785.60;;;18.90
71081;BMP180;58740;50.672;18.690;2023-04-24T13:47:53;97780.40;;;18.90
71081;BMP180;58740;50.672;18.690;2023-04-24T13:50:22;97779.00;;;18.82
71081;BMP180;58740;50.672;18.690;2023-04-24T13:52:50;97777.40;;;18.80
71081;BMP180;58740;50.672;18.690;2023-04-24T13:55:17;97781.40;;;18.72
71081;BMP180;58740;50.672;18.690;2023-04-24T13:57:45;97785.80;;;18.70
71081;BMP180;58740;50.672;18.690;2023-04-24T14:00:13;97783.20;;;18.60
71081;BMP180;58740;50.672;18.690;2023-04-24T14:02:41;97789.80;;;18.58
71081;BMP180;58740;50.672;18.690;2023-04-24T14:05:09;97793.20;;;18.50
71081;BMP180;58740;50.672;18.690;2023-04-24T14:07:38;97790.80;;;18.50
71081;BMP180;58740;50.672;18.690;2023-04-24T14:10:07;97791.40;;;18.50
71081;BMP180;58740;50.672;18.690;2023-04-24T14:12:35;97794.20;;;18.40
71081;BMP180;58740;50.672;18.690;2023-04-24T14:15:04;97790.40;;;18.40
71081;BMP180;58740;50.672;18.690;2023-04-24T14:17:32;97798.80;;;18.40
71081;BMP180;58740;50.672;18.690;2023-04-24T14:20:00;97807.80;;;18.36
71081;BMP180;58740;50.672;18.690;2023-04-24T14:22:28;97808.20;;;18.30
71081;BMP180;58740;50.672;18.690;2023-04-24T14:24:56;97807.20;;;18.30
71081;BMP180;58740;50.672;18.690;2023-04-24T14:27:25;97809.00;;;18.30